Terminal Aerodrome Forecast
Issued by NWS

Home | Current Version | Previous Version | Text Only | Print | Product List | Glossary On
Versions: 1 2 3 4 5 6 7 8 9 10 11 12
000
FTUS43 KDLH 231100 RRA
TAFBRD
TAF
KBRD 231147Z 2312/2412 03007KT 5SM BR OVC007
      TEMPO 2313/2315 2SM -DZSN BR OVC004
     FM231500 01009KT 3SM -DZSN BR OVC004
     FM240200 34008KT 5SM -SN BR OVC008
     FM240600 34007KT P6SM OVC006=

USA.gov is the U.S. government's official web portal to all federal, state and local government web resources and services.